Countyline, North Carolina
Current Conditions -  °F | °C
As of 7:55 AM on Saturday 20 Dec 2014 (Local Time) from KSVH Reporting Station
Light Rain Light Rain  
Wind Chill: 37°   Ceiling: 3500
Heat Index: 37°   Visibility: 10mi
Dew Point: 30°   Wind: 3mph
Humidity: 74%   Direction: 20°NNE
Pressure: 30.24"   Gusts: NA
Location:  35.9632°N, 80.7532°W
Report Text: KSVH 201255Z AUTO 02003KT 10SM -RA OVC035 03/M01 A3024 RMK AO2 T00301012
Loading
Personal Weather Stations






























Interactive Weather Map New forecast layout! Learn more

10-Day Weather Forecast

Advertisements
Track Severe Weather on mobile